CST,Max TemperatureF,Mean TemperatureF,Min TemperatureF,Max Dew PointF,MeanDew PointF,Min DewpointF,Max Humidity, Mean Humidity, Min Humidity, Max Sea Level PressureIn, Mean Sea Level PressureIn, Min Sea Level PressureIn, Max VisibilityMiles, Mean VisibilityMiles, Min VisibilityMiles, Max Wind SpeedMPH, Mean Wind SpeedMPH, Max Gust SpeedMPH,PrecipitationIn, CloudCover, Events, WindDirDegrees
2013-2-1,62,48,33,39,32,27,75,55,32,30.41,30.30,30.21,10,10,8,12,4,18,0.00,,,103
2013-2-2,66,54,42,50,40,34,82,62,30,30.33,30.24,30.18,10,10,9,14,5,20,0.00,,,233
2013-2-3,68,50,33,41,34,28,93,57,24,30.33,30.23,30.04,10,10,9,7,1,,0.00,,,132
2013-2-4,66,60,53,57,49,32,100,73,41,30.03,29.93,29.84,10,9,2,10,5,18,0.00,,Rain,168
2013-2-5,68,60,53,63,59,54,100,95,78,30.04,29.97,29.91,9,4,0,6,1,,0.00,,Fog,116
2013-2-6,60,56,53,61,57,54,100,100,94,30.07,30.00,29.95,7,3,0,8,2,,0.01,,Fog-Rain-Thunderstorm,115
2013-2-7,68,62,55,61,57,52,100,91,68,30.04,29.93,29.86,10,6,0,18,4,25,0.00,3,Fog,172
2013-2-8,64,54,44,50,41,34,93,66,32,30.25,30.17,30.05,10,9,4,13,8,21,0.00,2,,358
2013-2-9,57,48,42,55,44,39,100,89,76,30.18,30.05,29.83,10,6,1,9,3,,0.00,6,Rain-Thunderstorm,119
2013-2-10,68,58,48,64,44,23,100,64,21,30.04,29.87,29.70,10,9,2,16,7,24,0.01,2,Rain-Thunderstorm,236
2013-2-11,53,48,44,46,41,32,100,75,44,30.17,30.11,30.02,10,9,2,9,1,,0.01,5,Rain,39
2013-2-12,51,48,44,50,47,43,100,98,88,30.07,29.93,29.84,10,6,0,12,3,16,0.00,7,Rain-Thunderstorm,30
2013-2-13,51,43,35,43,38,36,100,81,54,30.17,30.08,29.98,10,10,8,16,8,20,0.00,5,,308
2013-2-14,66,49,32,39,35,30,100,70,26,30.14,30.08,30.04,10,9,3,12,2,17,0.00,0,,223
2013-2-15,51,44,35,39,32,21,93,62,30,30.38,30.28,30.10,10,10,6,13,5,20,0.00,4,,347
2013-2-16,51,40,30,32,29,25,93,68,38,30.42,30.32,30.21,10,10,5,12,2,17,0.00,1,,305
2013-2-17,69,50,32,43,32,27,100,49,20,30.21,30.09,29.98,10,10,10,18,7,25,0.00,0,,176
2013-2-18,75,64,51,57,46,32,82,59,30,30.11,29.91,29.76,10,10,8,20,12,30,0.00,4,Rain,216
2013-2-19,62,48,35,32,27,19,81,45,19,30.35,30.24,30.12,10,10,9,8,4,,0.00,0,,38
2013-2-20,51,45,39,39,35,28,93,71,41,30.22,30.08,29.88,10,9,2,8,3,,0.01,6,Rain,71
2013-2-21,66,52,39,54,41,32,100,77,37,29.93,29.77,29.68,10,8,1,14,7,23,0.01,5,Rain-Thunderstorm,122
2013-2-22,50,42,35,45,33,28,100,72,43,30.14,30.05,29.93,10,9,3,12,4,,0.00,1,,340
2013-2-23,55,44,32,34,31,27,93,65,38,30.09,30.02,29.95,10,10,9,10,2,18,0.00,0,,340
2013-2-24,68,50,32,41,36,32,100,62,28,29.99,29.87,29.72,10,9,4,12,3,18,0.00,1,,125
2013-2-25,66,54,41,55,40,28,94,61,29,29.70,29.56,29.45,10,9,2,21,7,31,0.00,6,,210
2013-2-26,57,46,35,36,33,32,93,62,38,29.93,29.80,29.61,10,10,9,22,13,31,0.00,4,,283
2013-2-27,57,44,32,34,30,23,100,60,27,30.19,30.06,29.91,10,10,7,20,5,25,0.00,0,,322
2013-2-28,55,45,35,32,28,25,81,53,31,30.28,30.22,30.16,10,10,7,16,10,23,0.00,0,,319